Time;durP1;ratioP1;P1;durP2;ratioP2;P2;SDS_P1;SDS_P2;PMS_P1;PMS_P2;Temp;Humidity;BMP_temperature;BMP_pressure;BME280_temperature;BME280_humidity;BME280_pressure;Samples;Min_cycle;Max_cycle;Signal;HPM_P1;HPM_P2
2022/10/19 00:01:02;;;;;;;10.90;3.30;;;;;;;13.31;100.00;97063.22;5036727;28;20293;-80
2022/10/19 00:03:31;;;;;;;8.37;3.20;;;;;;;13.21;100.00;97058.34;5013930;28;20199;-80
2022/10/19 00:05:59;;;;;;;4.63;2.77;;;;;;;13.17;100.00;97059.03;5027758;28;20221;-79
2022/10/19 00:08:26;;;;;;;8.73;3.23;;;;;;;13.20;100.00;97061.28;5025487;28;20218;-80
2022/10/19 00:10:53;;;;;;;7.97;2.97;;;;;;;13.11;100.00;97062.63;5021630;28;20231;-81
2022/10/19 00:13:20;;;;;;;6.80;2.93;;;;;;;13.02;100.00;97053.97;5032373;28;20198;-80
2022/10/19 00:15:47;;;;;;;9.23;3.23;;;;;;;13.01;100.00;97054.22;5027751;28;20301;-80
2022/10/19 00:18:13;;;;;;;12.93;3.87;;;;;;;13.06;100.00;97055.19;5033974;28;20204;-80
2022/10/19 00:20:42;;;;;;;9.67;3.33;;;;;;;13.05;100.00;97058.94;5031547;28;20314;-80
2022/10/19 00:23:09;;;;;;;6.20;3.63;;;;;;;12.95;100.00;97041.56;5015973;28;20237;-80
2022/10/19 00:25:37;;;;;;;5.10;3.40;;;;;;;12.94;100.00;97045.31;5030519;28;20297;-80
2022/10/19 00:28:05;;;;;;;6.90;2.97;;;;;;;12.97;100.00;97042.16;5015297;28;20222;-81
2022/10/19 00:30:32;;;;;;;6.40;3.30;;;;;;;12.91;100.00;97043.91;5030766;28;20195;-80
2022/10/19 00:32:58;;;;;;;6.10;3.50;;;;;;;12.86;100.00;97035.63;5028697;28;20199;-80
2022/10/19 00:35:26;;;;;;;7.03;2.97;;;;;;;12.85;100.00;97033.97;5040515;28;20211;-80
2022/10/19 00:37:54;;;;;;;4.73;2.90;;;;;;;12.83;100.00;97036.94;5021299;28;20226;-80
2022/10/19 00:40:21;;;;;;;8.47;3.10;;;;;;;12.78;100.00;97038.63;5028165;28;20293;-80
2022/10/19 00:42:54;;;;;;;13.70;3.00;;;;;;;12.78;100.00;97031.34;5018767;28;20203;-80
2022/10/19 00:45:21;;;;;;;5.53;2.67;;;;;;;12.86;100.00;97043.75;5012991;28;20227;-80
2022/10/19 00:47:50;;;;;;;11.47;3.40;;;;;;;12.81;100.00;97036.31;5028294;28;20210;-80
2022/10/19 00:50:18;;;;;;;6.17;2.80;;;;;;;12.84;100.00;97033.13;5026384;28;20199;-80
2022/10/19 00:52:45;;;;;;;5.10;2.70;;;;;;;12.82;100.00;97031.72;5029218;28;20207;-80
2022/10/19 00:55:14;;;;;;;5.60;3.63;;;;;;;12.73;100.00;97036.63;5021586;28;20342;-80
2022/10/19 00:57:41;;;;;;;7.90;3.17;;;;;;;12.71;100.00;97033.31;5031695;28;20265;-80
2022/10/19 01:00:09;;;;;;;7.13;3.17;;;;;;;12.75;100.00;97037.22;5024812;28;20233;-80
2022/10/19 01:02:36;;;;;;;10.80;3.30;;;;;;;12.73;100.00;97033.09;5023624;28;20198;-80
2022/10/19 01:05:04;;;;;;;9.57;3.80;;;;;;;12.54;100.00;97034.97;5030739;28;20206;-80
2022/10/19 01:07:32;;;;;;;7.07;3.03;;;;;;;12.52;100.00;97035.19;5037650;28;20217;-81
2022/10/19 01:10:01;;;;;;;6.17;2.90;;;;;;;12.48;100.00;97017.75;5032685;28;20269;-81
2022/10/19 01:12:52;;;;;;;5.00;2.83;;;;;;;12.60;100.00;97034.06;5048245;28;20271;-80
2022/10/19 01:15:31;;;;;;;5.90;3.10;;;;;;;12.61;100.00;97014.03;5024831;28;20238;-80
2022/10/19 01:18:05;;;;;;;8.63;3.60;;;;;;;12.65;100.00;97012.56;5030303;28;20195;-80
2022/10/19 01:20:52;;;;;;;8.20;3.30;;;;;;;12.64;100.00;97000.06;5036661;28;20226;-80
2022/10/19 01:23:46;;;;;;;5.50;2.60;;;;;;;12.69;100.00;97011.03;5034981;28;20241;-81
2022/10/19 01:26:36;;;;;;;5.50;3.40;;;;;;;12.51;100.00;97002.91;5043983;28;20199;-80
2022/10/19 01:29:14;;;;;;;6.27;3.30;;;;;;;12.49;100.00;97002.31;5033753;28;20304;-80
2022/10/19 01:31:48;;;;;;;9.77;4.20;;;;;;;12.47;100.00;97001.72;5024511;28;20325;-80
2022/10/19 01:34:24;;;;;;;9.87;3.80;;;;;;;12.37;100.00;96990.56;5038563;28;20215;-80
2022/10/19 01:37:02;;;;;;;8.90;3.63;;;;;;;12.43;100.00;96992.38;5032483;28;20251;-80
2022/10/19 01:39:38;;;;;;;7.83;3.87;;;;;;;12.46;100.00;96995.47;5024391;28;20348;-81
2022/10/19 01:42:12;;;;;;;8.57;3.00;;;;;;;12.45;100.00;96988.41;5039260;28;20211;-80
2022/10/19 01:44:46;;;;;;;7.17;2.93;;;;;;;12.52;100.00;96981.00;5039386;28;20215;-80
2022/10/19 01:47:20;;;;;;;11.20;3.53;;;;;;;12.55;100.00;96987.03;5028047;28;20187;-81
2022/10/19 01:49:53;;;;;;;7.67;2.77;;;;;;;12.49;100.00;96973.34;5041160;28;20206;-81
2022/10/19 01:52:23;;;;;;;7.77;3.00;;;;;;;12.46;100.00;96978.38;5034303;28;20207;-80
2022/10/19 01:54:54;;;;;;;7.13;2.53;;;;;;;12.54;100.00;96988.09;5022326;28;20219;-80
2022/10/19 01:57:26;;;;;;;7.40;3.00;;;;;;;12.51;100.00;96992.06;5027910;28;20286;-80
2022/10/19 01:59:55;;;;;;;5.73;3.30;;;;;;;12.41;100.00;96979.09;5015254;28;20227;-80
2022/10/19 02:02:25;;;;;;;8.17;3.40;;;;;;;12.38;100.00;96976.00;5018507;28;21010;-80
2022/10/19 02:04:56;;;;;;;10.13;3.07;;;;;;;12.33;100.00;96973.13;5021872;28;20202;-80
2022/10/19 02:07:25;;;;;;;11.07;2.77;;;;;;;12.33;100.00;96975.84;5015163;28;20215;-81
2022/10/19 02:09:52;;;;;;;5.70;2.93;;;;;;;12.29;100.00;96971.91;5034791;28;20225;-80
2022/10/19 02:12:21;;;;;;;8.67;2.93;;;;;;;12.25;100.00;96973.44;5038198;28;20207;-80
2022/10/19 02:14:53;;;;;;;4.93;2.70;;;;;;;12.19;100.00;96963.50;5016926;28;20215;-80
2022/10/19 02:17:25;;;;;;;9.57;3.17;;;;;;;12.20;100.00;96965.97;5026578;28;20288;-81
2022/10/19 02:19:53;;;;;;;7.20;3.10;;;;;;;12.20;100.00;96967.84;5021907;28;20242;-79
2022/10/19 02:22:21;;;;;;;7.67;3.10;;;;;;;12.17;100.00;96962.88;5038327;28;20211;-80
2022/10/19 02:24:49;;;;;;;8.90;3.30;;;;;;;12.03;100.00;96952.22;5023384;28;20199;-80
2022/10/19 02:27:16;;;;;;;6.67;3.77;;;;;;;12.04;100.00;96963.88;5034208;28;20215;-82
2022/10/19 02:29:43;;;;;;;6.47;2.93;;;;;;;12.03;100.00;96965.75;5020824;28;20219;-80
2022/10/19 02:32:11;;;;;;;7.73;3.30;;;;;;;12.05;100.00;96954.69;5035224;28;20218;-80
2022/10/19 02:34:40;;;;;;;16.40;3.30;;;;;;;11.99;100.00;96955.59;5023396;28;20198;-80
2022/10/19 02:37:07;;;;;;;5.50;2.60;;;;;;;12.02;100.00;96955.97;5023799;28;20227;-80
2022/10/19 02:39:35;;;;;;;7.60;3.10;;;;;;;11.94;100.00;96950.84;5038377;28;20204;-80
2022/10/19 02:42:07;;;;;;;9.07;3.30;;;;;;;12.02;100.00;96960.56;5020311;28;20218;-80
2022/10/19 02:44:40;;;;;;;10.23;3.30;;;;;;;11.99;100.00;96959.09;5020503;28;20246;-81
2022/10/19 02:47:13;;;;;;;8.43;2.90;;;;;;;11.92;100.00;96947.53;5040121;28;20212;-81
2022/10/19 02:49:43;;;;;;;7.60;3.30;;;;;;;11.98;100.00;96960.19;5031496;28;20207;-82
2022/10/19 02:52:12;;;;;;;5.77;2.83;;;;;;;11.95;100.00;96949.81;5034306;28;20260;-80
2022/10/19 02:54:42;;;;;;;7.27;2.90;;;;;;;11.90;100.00;96946.13;5028151;28;20241;-80
2022/10/19 02:57:16;;;;;;;8.80;3.37;;;;;;;11.91;100.00;96943.16;5015436;28;20302;-80
2022/10/19 02:59:43;;;;;;;6.17;2.97;;;;;;;11.93;100.00;96951.06;5011340;28;20290;-80
2022/10/19 03:02:10;;;;;;;11.33;2.63;;;;;;;11.97;100.00;96961.25;5023145;28;20202;-81
2022/10/19 03:04:38;;;;;;;4.00;2.80;;;;;;;11.93;100.00;96953.78;5032406;28;20295;-80
2022/10/19 03:07:06;;;;;;;6.13;3.27;;;;;;;11.86;100.00;96953.03;5032823;28;20206;-82
2022/10/19 03:09:33;;;;;;;7.27;3.30;;;;;;;11.89;100.00;96964.25;5015513;28;20251;-80
2022/10/19 03:12:00;;;;;;;7.80;3.17;;;;;;;11.87;100.00;96960.09;5019458;28;20197;-80
2022/10/19 03:14:27;;;;;;;8.30;3.57;;;;;;;11.77;100.00;96952.47;5019810;28;20187;-81
2022/10/19 03:16:54;;;;;;;7.80;3.60;;;;;;;11.79;100.00;96969.31;5044285;28;20230;-80
2022/10/19 03:19:22;;;;;;;9.87;3.60;;;;;;;11.75;100.00;96959.97;5023907;28;20273;-81
2022/10/19 03:21:49;;;;;;;5.80;3.10;;;;;;;11.75;100.00;96966.22;5024836;28;20230;-80
2022/10/19 03:24:17;;;;;;;8.40;3.50;;;;;;;11.82;100.00;96970.78;5018886;28;20202;-81
2022/10/19 03:26:45;;;;;;;8.27;3.30;;;;;;;11.79;100.00;96966.63;5027355;28;20198;-81
2022/10/19 03:29:12;;;;;;;10.20;2.93;;;;;;;11.79;100.00;96971.19;5040332;28;20211;-80
2022/10/19 03:31:39;;;;;;;5.90;3.00;;;;;;;11.80;100.00;96973.69;5020287;28;20208;-81
2022/10/19 03:34:07;;;;;;;9.80;3.00;;;;;;;11.69;100.00;96966.25;5031281;28;20297;-80
2022/10/19 03:36:36;;;;;;;9.20;2.67;;;;;;;11.79;100.00;96965.78;5025400;28;20210;-82
2022/10/19 03:39:06;;;;;;;9.07;2.90;;;;;;;11.80;100.00;96964.75;5031802;28;20211;-79
2022/10/19 03:41:36;;;;;;;11.37;4.10;;;;;;;11.72;100.00;96965.81;5045862;28;20522;-80
2022/10/19 03:44:03;;;;;;;9.60;3.50;;;;;;;11.64;100.00;96976.94;5031399;28;20279;-80
2022/10/19 03:46:30;;;;;;;8.20;3.23;;;;;;;11.51;100.00;96963.50;5032418;28;20226;-80
2022/10/19 03:48:58;;;;;;;5.23;3.40;;;;;;;11.47;100.00;96975.84;5020797;28;20265;-80
2022/10/19 03:51:27;;;;;;;6.97;3.47;;;;;;;11.42;100.00;96972.94;5028951;28;20278;-80
2022/10/19 03:53:55;;;;;;;6.43;3.47;;;;;;;11.36;100.00;96961.13;5024128;28;20207;-80
2022/10/19 03:56:24;;;;;;;10.57;3.60;;;;;;;11.31;100.00;96978.00;5021099;28;20203;-80
2022/10/19 03:58:53;;;;;;;6.47;3.60;;;;;;;11.29;100.00;96977.41;5014491;28;20203;-81
2022/10/19 04:01:23;;;;;;;8.93;3.43;;;;;;;11.35;100.00;96976.53;5018098;28;20222;-80
2022/10/19 04:03:53;;;;;;;7.63;3.23;;;;;;;11.36;100.00;96964.69;5035669;28;20207;-80
2022/10/19 04:06:24;;;;;;;5.23;3.17;;;;;;;11.40;100.00;96969.66;5039028;28;20203;-81
2022/10/19 04:08:52;;;;;;;9.63;3.30;;;;;;;11.31;100.00;96982.63;5026123;28;20206;-81
2022/10/19 04:11:21;;;;;;;8.70;3.77;;;;;;;11.29;100.00;96979.28;5036856;28;20234;-80
2022/10/19 04:13:49;;;;;;;5.13;3.17;;;;;;;11.19;100.00;96977.06;5021991;28;20294;-80
2022/10/19 04:16:18;;;;;;;6.47;3.47;;;;;;;11.23;100.00;96978.28;5017516;28;20277;-80
2022/10/19 04:18:45;;;;;;;8.23;3.73;;;;;;;11.24;100.00;96974.53;5032640;28;20222;-80
2022/10/19 04:21:22;;;;;;;9.53;3.57;;;;;;;11.17;100.00;96954.81;5036381;28;20270;-81
2022/10/19 04:23:50;;;;;;;7.87;4.17;;;;;;;11.20;100.00;96967.91;5041005;28;20222;-81
2022/10/19 04:26:17;;;;;;;8.90;3.10;;;;;;;11.22;100.00;96960.44;5029298;28;20209;-80
2022/10/19 04:28:45;;;;;;;6.90;3.00;;;;;;;11.22;100.00;96956.91;5021255;28;20234;-81
2022/10/19 04:31:12;;;;;;;7.27;3.10;;;;;;;11.16;100.00;96961.28;5026361;28;20218;-80
2022/10/19 04:33:41;;;;;;;9.50;4.03;;;;;;;11.12;100.00;96954.66;5036436;28;20211;-81
2022/10/19 04:36:09;;;;;;;4.93;3.20;;;;;;;11.11;100.00;96947.59;5019482;28;20203;-81
2022/10/19 04:38:38;;;;;;;7.17;3.07;;;;;;;11.13;100.00;96940.13;5026773;28;20311;-80
2022/10/19 04:41:08;;;;;;;7.27;2.67;;;;;;;11.19;100.00;96952.75;5044685;28;20254;-80
2022/10/19 04:43:35;;;;;;;9.13;2.80;;;;;;;11.22;100.00;96954.19;5017999;28;20204;-80
2022/10/19 04:46:04;;;;;;;6.20;2.57;;;;;;;11.22;100.00;96963.13;5038254;28;20195;-81
2022/10/19 04:48:31;;;;;;;9.93;2.97;;;;;;;11.22;100.00;96944.22;5036676;28;20207;-81
2022/10/19 04:51:00;;;;;;;5.83;2.90;;;;;;;11.31;100.00;96953.66;5026143;28;20195;-81
2022/10/19 04:53:27;;;;;;;9.20;3.30;;;;;;;11.23;100.00;96940.44;5043584;28;20198;-81
2022/10/19 04:55:54;;;;;;;7.17;3.17;;;;;;;11.22;100.00;96938.81;5015255;28;20242;-80
2022/10/19 04:58:21;;;;;;;5.73;2.73;;;;;;;11.30;100.00;96949.34;5024676;28;20432;-81
2022/10/19 05:00:48;;;;;;;8.60;3.73;;;;;;;11.33;100.00;96945.34;5033110;28;20222;-81
2022/10/19 05:03:16;;;;;;;8.67;3.90;;;;;;;11.35;100.00;96945.97;5029902;28;20262;-81
2022/10/19 05:05:43;;;;;;;6.10;3.30;;;;;;;11.33;100.00;96942.63;5040659;28;20213;-81
2022/10/19 05:08:11;;;;;;;12.47;3.43;;;;;;;11.29;100.00;96933.34;5022480;28;20210;-80
2022/10/19 05:10:39;;;;;;;7.00;2.90;;;;;;;11.23;100.00;96924.22;5022392;28;20249;-81
2022/10/19 05:13:09;;;;;;;8.90;3.97;;;;;;;11.27;100.00;96920.03;5041510;28;20215;-81
2022/10/19 05:15:36;;;;;;;8.40;3.40;;;;;;;11.27;100.00;96917.31;5029511;28;20211;-81
2022/10/19 05:18:04;;;;;;;8.17;2.80;;;;;;;11.28;100.00;96913.56;5023669;28;20202;-81
2022/10/19 05:20:31;;;;;;;8.27;3.27;;;;;;;11.28;100.00;96910.88;5012235;28;20206;-80
2022/10/19 05:22:58;;;;;;;9.87;3.47;;;;;;;11.24;100.00;96914.22;5040057;28;20209;-80
2022/10/19 05:25:26;;;;;;;9.00;3.67;;;;;;;11.21;100.00;96910.09;5034982;28;20317;-82
2022/10/19 05:27:53;;;;;;;10.93;3.77;;;;;;;11.19;100.00;96908.66;5030328;28;20198;-80
2022/10/19 05:30:21;;;;;;;11.57;3.43;;;;;;;11.13;100.00;96896.03;5023132;28;20195;-81
2022/10/19 05:32:48;;;;;;;5.50;3.17;;;;;;;11.15;100.00;96910.13;5014677;28;20210;-80
2022/10/19 05:35:15;;;;;;;9.53;2.93;;;;;;;11.14;100.00;96909.34;5012237;28;20196;-82
2022/10/19 05:37:43;;;;;;;7.77;3.03;;;;;;;11.14;100.00;96906.63;5016462;28;20235;-80
2022/10/19 05:40:10;;;;;;;5.50;3.60;;;;;;;11.13;100.00;96902.28;5023458;28;20283;-83
2022/10/19 05:42:39;;;;;;;11.17;3.43;;;;;;;11.11;100.00;96906.25;5032576;28;20261;-80
2022/10/19 05:45:07;;;;;;;7.37;3.07;;;;;;;11.02;100.00;96902.16;5012590;28;20195;-81
2022/10/19 05:47:35;;;;;;;8.47;2.90;;;;;;;11.06;100.00;96900.66;5039798;28;20207;-80
2022/10/19 05:50:02;;;;;;;5.37;2.73;;;;;;;11.04;100.00;96900.06;5019787;28;20210;-80
2022/10/19 05:52:29;;;;;;;7.17;3.27;;;;;;;10.98;100.00;96888.22;5039073;28;20209;-82
2022/10/19 05:54:57;;;;;;;8.17;3.40;;;;;;;10.96;100.00;96884.94;5042616;28;20211;-82
2022/10/19 05:57:25;;;;;;;10.00;3.80;;;;;;;11.00;100.00;96902.34;5017699;28;20199;-81
2022/10/19 05:59:57;;;;;;;8.83;4.10;;;;;;;11.02;100.00;96913.78;5020494;28;20233;-80
2022/10/19 06:02:24;;;;;;;11.43;3.90;;;;;;;10.91;100.00;96898.25;5039375;28;20218;-80
2022/10/19 06:04:51;;;;;;;12.60;4.07;;;;;;;10.98;100.00;96917.97;5035039;28;20238;-81
2022/10/19 06:07:18;;;;;;;7.87;3.53;;;;;;;10.96;100.00;96918.19;5035072;28;20211;-80
2022/10/19 06:09:45;;;;;;;9.40;3.80;;;;;;;10.87;100.00;96907.88;5034555;28;20226;-80
2022/10/19 06:12:12;;;;;;;6.93;3.80;;;;;;;10.92;100.00;96916.13;5028737;28;20199;-81
2022/10/19 06:14:39;;;;;;;11.47;4.77;;;;;;;10.89;100.00;96908.47;5033839;28;20206;-81
2022/10/19 06:17:08;;;;;;;8.37;3.90;;;;;;;10.95;100.00;96918.41;5044583;28;20221;-80
2022/10/19 06:19:35;;;;;;;6.13;3.60;;;;;;;10.95;100.00;96921.94;5044943;28;20502;-80
2022/10/19 06:22:02;;;;;;;7.83;3.33;;;;;;;10.95;100.00;96916.53;5026368;28;20231;-80
2022/10/19 06:24:29;;;;;;;11.20;3.10;;;;;;;11.00;100.00;96919.41;5041643;28;20215;-80
2022/10/19 06:26:56;;;;;;;8.40;3.33;;;;;;;11.06;100.00;96923.09;5032614;28;20214;-81
2022/10/19 06:29:23;;;;;;;7.83;3.67;;;;;;;11.02;100.00;96916.47;5027469;28;20366;-81
2022/10/19 06:31:53;;;;;;;10.60;3.77;;;;;;;11.00;100.00;96918.56;5018484;28;20206;-80
2022/10/19 06:34:21;;;;;;;11.80;4.60;;;;;;;10.95;100.00;96903.03;5033147;28;20268;-81
2022/10/19 06:36:48;;;;;;;9.37;4.23;;;;;;;11.04;100.00;96924.38;5019270;28;20203;-80
2022/10/19 06:39:16;;;;;;;17.80;4.23;;;;;;;10.99;100.00;96927.72;5021818;28;20203;-81
2022/10/19 06:41:43;;;;;;;7.10;4.20;;;;;;;10.89;100.00;96922.78;5038560;28;20226;-81
2022/10/19 06:44:18;;;;;;;9.73;4.10;;;;;;;10.93;100.00;96936.72;5024256;28;20213;-81
2022/10/19 06:46:45;;;;;;;11.90;3.80;;;;;;;10.96;100.00;96939.00;5026517;28;20279;-80
2022/10/19 06:49:14;;;;;;;10.63;4.07;;;;;;;10.99;100.00;96943.94;5033336;28;20203;-80
2022/10/19 06:51:42;;;;;;;8.83;3.93;;;;;;;11.02;100.00;96938.09;5023489;28;20215;-80
2022/10/19 06:54:09;;;;;;;10.17;4.00;;;;;;;10.93;100.00;96937.53;5043892;28;20194;-80
2022/10/19 06:56:36;;;;;;;13.37;5.07;;;;;;;11.04;100.00;96957.63;5031761;28;20211;-80
2022/10/19 06:59:03;;;;;;;13.93;4.30;;;;;;;11.07;100.00;96959.88;5019525;28;20200;-80
2022/10/19 07:01:30;;;;;;;12.80;4.30;;;;;;;11.08;100.00;96964.25;5035167;28;20282;-80
2022/10/19 07:03:57;;;;;;;10.53;4.40;;;;;;;10.95;100.00;96956.25;5029401;28;20207;-80
2022/10/19 07:06:27;;;;;;;11.40;4.57;;;;;;;10.98;100.00;96969.31;5012742;28;20199;-80
2022/10/19 07:08:56;;;;;;;10.97;5.33;;;;;;;10.94;100.00;96968.09;5046558;28;20199;-80
2022/10/19 07:11:23;;;;;;;14.33;4.90;;;;;;;10.88;100.00;96974.38;5038484;28;20230;-80
2022/10/19 07:13:52;;;;;;;7.70;4.40;;;;;;;10.86;100.00;96974.59;5023265;28;20200;-80
2022/10/19 07:16:20;;;;;;;8.50;4.13;;;;;;;10.89;100.00;96971.44;5034726;28;20213;-81
2022/10/19 07:18:48;;;;;;;10.77;4.40;;;;;;;10.98;100.00;96974.69;5031469;28;20215;-81
2022/10/19 07:21:16;;;;;;;7.73;4.07;;;;;;;10.90;100.00;96962.28;5017273;28;20190;-80
2022/10/19 07:23:46;;;;;;;8.43;4.53;;;;;;;10.87;100.00;96962.72;5030246;28;20199;-80
2022/10/19 07:26:16;;;;;;;17.90;4.40;;;;;;;10.83;100.00;96955.25;5027215;28;20200;-80
2022/10/19 07:28:46;;;;;;;8.63;4.07;;;;;;;10.94;100.00;96973.50;5033215;28;20321;-81
2022/10/19 07:31:18;;;;;;;6.53;4.00;;;;;;;10.88;100.00;96961.69;5034875;28;20226;-80
2022/10/19 07:33:46;;;;;;;14.53;4.13;;;;;;;10.97;100.00;96976.56;5020244;28;20203;-81
2022/10/19 07:36:13;;;;;;;16.60;5.40;;;;;;;10.96;100.00;96971.41;5021790;28;20301;-80
2022/10/19 07:38:41;;;;;;;9.77;4.53;;;;;;;10.94;100.00;96965.38;5036789;28;20317;-81
2022/10/19 07:41:11;;;;;;;9.40;4.70;;;;;;;10.97;100.00;96973.06;5030591;28;20469;-80
2022/10/19 07:43:40;;;;;;;8.87;4.93;;;;;;;10.96;100.00;96963.31;5035619;28;20209;-81
2022/10/19 07:46:11;;;;;;;11.43;5.33;;;;;;;11.02;100.00;96969.69;5041287;28;20234;-81
2022/10/19 07:48:38;;;;;;;13.53;4.23;;;;;;;11.08;100.00;96976.94;5012379;28;20281;-81
2022/10/19 07:51:07;;;;;;;10.40;4.70;;;;;;;11.10;100.00;96972.97;5023243;28;20199;-80
2022/10/19 07:53:35;;;;;;;9.83;4.57;;;;;;;11.06;100.00;96955.53;5035534;28;20207;-80
2022/10/19 07:56:06;;;;;;;10.20;4.20;;;;;;;11.20;100.00;96975.19;5023219;28;20202;-80
2022/10/19 07:58:35;;;;;;;12.37;4.07;;;;;;;11.17;100.00;96962.94;5029004;28;20264;-80
2022/10/19 08:01:05;;;;;;;7.40;4.93;;;;;;;11.19;100.00;96960.84;5018205;28;20233;-81
2022/10/19 08:03:33;;;;;;;7.90;4.10;;;;;;;11.18;100.00;96961.91;5044042;28;20230;-81
2022/10/19 08:06:01;;;;;;;8.73;4.50;;;;;;;11.12;100.00;96949.25;5020728;28;20211;-80
2022/10/19 08:08:28;;;;;;;14.33;4.37;;;;;;;11.23;100.00;96958.53;5040789;28;20202;-81
2022/10/19 08:10:56;;;;;;;10.00;4.20;;;;;;;11.27;100.00;96952.47;5024656;28;20222;-81
2022/10/19 08:13:24;;;;;;;7.13;3.67;;;;;;;11.29;100.00;96950.38;5046029;28;20213;-80
2022/10/19 08:15:51;;;;;;;10.50;3.20;;;;;;;11.32;100.00;96949.09;5044570;28;20229;-80
2022/10/19 08:18:21;;;;;;;9.40;4.20;;;;;;;11.35;100.00;96949.50;5032653;28;20191;-80
2022/10/19 08:20:48;;;;;;;7.37;3.60;;;;;;;11.40;100.00;96934.50;5031808;28;20203;-80
2022/10/19 08:23:16;;;;;;;8.47;4.30;;;;;;;11.55;100.00;96948.50;5026049;28;20222;-79
2022/10/19 08:25:43;;;;;;;5.63;3.50;;;;;;;11.62;100.00;96938.44;5036185;28;20215;-80
2022/10/19 08:28:10;;;;;;;8.67;3.57;;;;;;;11.70;100.00;96924.63;5035835;28;20199;-80
2022/10/19 08:30:37;;;;;;;9.47;3.23;;;;;;;11.87;100.00;96930.31;5033680;28;20214;-80
2022/10/19 08:33:07;;;;;;;6.53;3.10;;;;;;;11.95;100.00;96919.19;5017527;28;20210;-81
2022/10/19 08:35:35;;;;;;;9.03;3.20;;;;;;;12.18;100.00;96922.06;5025295;28;20202;-80
2022/10/19 08:38:02;;;;;;;8.43;5.20;;;;;;;12.21;100.00;96916.19;5026035;28;20260;-79
2022/10/19 08:40:31;;;;;;;16.20;7.57;;;;;;;12.38;100.00;96925.34;5031325;28;20297;-80
2022/10/19 08:43:05;;;;;;;8.97;4.27;;;;;;;12.57;100.00;96915.31;5032675;28;20219;-80
2022/10/19 08:45:41;;;;;;;8.80;6.17;;;;;;;12.75;100.00;96919.88;5045160;28;20216;-79
2022/10/19 08:48:28;;;;;;;11.23;4.03;;;;;;;12.86;100.00;96909.06;5028925;28;20202;-80
2022/10/19 08:50:59;;;;;;;6.50;3.80;;;;;;;13.04;100.00;96904.63;5019491;28;20199;-80
2022/10/19 08:53:37;;;;;;;11.33;3.43;;;;;;;13.22;100.00;96896.44;5039318;28;20207;-79
2022/10/19 08:56:16;;;;;;;9.40;3.43;;;;;;;13.27;100.00;96882.22;5037344;28;20241;-79
2022/10/19 08:58:56;;;;;;;6.87;3.67;;;;;;;13.55;100.00;96904.03;5037598;28;20219;-79
2022/10/19 09:01:37;;;;;;;10.70;3.67;;;;;;;13.66;100.00;96886.94;5035338;28;20210;-80
2022/10/19 09:04:10;;;;;;;8.40;3.00;;;;;;;13.80;100.00;96890.22;5029849;28;20207;-81
2022/10/19 09:06:48;;;;;;;7.87;3.80;;;;;;;13.84;100.00;96872.41;5042848;28;20226;-79
2022/10/19 09:09:18;;;;;;;11.67;3.17;;;;;;;13.98;100.00;96869.19;5036901;28;20210;-81
2022/10/19 09:11:49;;;;;;;8.50;3.23;;;;;;;14.07;100.00;96868.81;5034183;28;20200;-80
2022/10/19 09:14:22;;;;;;;12.20;4.67;;;;;;;14.21;100.00;96867.47;5031764;28;20214;-79
2022/10/19 09:16:50;;;;;;;6.77;3.20;;;;;;;14.29;100.00;96848.09;5036964;28;20297;-79
2022/10/19 09:19:24;;;;;;;7.40;3.03;;;;;;;14.44;100.00;96862.03;5022668;28;20297;-79
2022/10/19 09:21:57;;;;;;;10.90;3.77;;;;;;;14.60;100.00;96855.81;5037509;28;20213;-79
2022/10/19 09:24:32;;;;;;;11.03;3.87;;;;;;;14.70;100.00;96847.03;5027809;28;20207;-79
2022/10/19 09:27:01;;;;;;;10.03;3.27;;;;;;;14.82;100.00;96844.22;5035012;28;20207;-81
2022/10/19 09:29:37;;;;;;;13.20;3.47;;;;;;;14.93;100.00;96843.34;5019363;28;20289;-80
2022/10/19 09:32:10;;;;;;;8.67;3.57;;;;;;;15.10;100.00;96855.06;5041208;28;20207;-80
2022/10/19 09:34:45;;;;;;;8.17;3.63;;;;;;;15.24;100.00;96847.38;5025103;28;20305;-80
2022/10/19 09:37:14;;;;;;;7.57;3.90;;;;;;;-141.59;100.00;61776.25;5039750;28;20242;-79
2022/10/19 09:39:41;;;;;;;6.43;3.10;;;;;;;-141.59;100.00;61776.25;5041136;28;20215;-80
2022/10/19 09:42:19;;;;;;;6.77;2.80;;;;;;;-141.59;100.00;61776.25;5039364;28;20279;-80
2022/10/19 09:44:49;;;;;;;7.07;3.03;;;;;;;-141.59;100.00;61776.25;5020972;28;20207;-80
2022/10/19 09:47:29;;;;;;;9.83;4.00;;;;;;;-141.59;100.00;61776.25;5032082;28;20207;-82
2022/10/19 09:50:08;;;;;;;6.07;3.63;;;;;;;-141.59;100.00;61776.25;5024493;28;20203;-83
2022/10/19 09:52:39;;;;;;;6.37;3.33;;;;;;;-141.59;100.00;61776.25;5021946;28;20203;-82
2022/10/19 09:55:19;;;;;;;7.47;3.30;;;;;;;-141.59;100.00;61776.25;5056566;28;20199;-82
2022/10/19 09:57:49;;;;;;;8.90;3.63;;;;;;;-141.59;100.00;61776.25;5041166;28;20475;-80
2022/10/19 10:00:21;;;;;;;7.03;3.60;;;;;;;-141.59;100.00;61776.25;5020821;28;20199;-81
2022/10/19 10:02:53;;;;;;;11.43;3.53;;;;;;;-141.59;100.00;61776.25;5037796;28;20229;-79
2022/10/19 10:05:29;;;;;;;7.17;3.07;;;;;;;-141.59;100.00;61776.25;5029986;28;20199;-80
2022/10/19 10:07:58;;;;;;;6.33;3.13;;;;;;;-141.59;100.00;61776.25;5021024;28;20206;-80
2022/10/19 10:10:28;;;;;;;8.80;2.80;;;;;;;-141.59;100.00;61776.25;5021648;28;20215;-82
2022/10/19 10:12:58;;;;;;;7.00;2.80;;;;;;;-141.59;100.00;61776.25;5028588;28;20238;-80
2022/10/19 10:15:27;;;;;;;7.90;3.47;;;;;;;-141.59;100.00;61776.25;5030086;28;20213;-82
2022/10/19 10:17:56;;;;;;;16.20;3.73;;;;;;;-141.59;100.00;61776.25;5022211;28;20233;-81
2022/10/19 10:20:27;;;;;;;12.73;3.83;;;;;;;-141.59;100.00;61776.25;5031075;28;20195;-82
2022/10/19 10:22:59;;;;;;;9.40;3.17;;;;;;;-141.59;100.00;61776.25;5034680;28;20241;-80
2022/10/19 10:25:29;;;;;;;8.87;3.50;;;;;;;-141.59;100.00;61776.25;5023928;28;20267;-80
2022/10/19 10:27:59;;;;;;;11.70;4.50;;;;;;;-141.59;100.00;61776.25;5043116;28;20231;-81
2022/10/19 10:30:33;;;;;;;8.57;4.40;;;;;;;-141.59;100.00;61776.25;5023114;28;20216;-81
2022/10/19 10:33:01;;;;;;;10.33;4.40;;;;;;;-141.59;100.00;61776.25;5029075;28;20211;-81
2022/10/19 10:35:32;;;;;;;11.50;5.83;;;;;;;-141.59;100.00;61776.25;5033142;28;20207;-80
2022/10/19 10:38:16;;;;;;;9.93;5.10;;;;;;;-141.59;100.00;61776.25;5031313;28;20330;-80
2022/10/19 10:40:51;;;;;;;9.50;5.23;;;;;;;-141.59;100.00;61776.25;5011440;28;20258;-80
2022/10/19 10:43:22;;;;;;;13.23;5.50;;;;;;;-141.59;100.00;61776.25;5026657;28;20227;-80
2022/10/19 10:45:52;;;;;;;12.83;5.63;;;;;;;-141.59;100.00;61776.25;5028462;28;20203;-80
2022/10/19 10:48:28;;;;;;;10.87;5.20;;;;;;;-141.59;100.00;61776.25;5037757;28;20203;-82
2022/10/19 10:50:55;;;;;;;10.67;5.00;;;;;;;-141.59;100.00;61776.25;5041419;28;20207;-80
2022/10/19 10:53:35;;;;;;;11.00;5.23;;;;;;;-141.59;100.00;61776.25;5019595;28;20210;-81
2022/10/19 10:56:06;;;;;;;13.38;5.70;;;;;;;-141.59;100.00;61776.25;5023983;28;20202;-81
2022/10/19 10:58:43;;;;;;;11.33;6.00;;;;;;;-141.59;100.00;61776.25;5039506;28;20207;-80
2022/10/19 11:01:19;;;;;;;9.47;5.27;;;;;;;-141.59;100.00;61776.25;5023672;28;20210;-79
2022/10/19 11:03:54;;;;;;;11.35;5.25;;;;;;;-141.59;100.00;61776.25;5020969;28;20226;-81
2022/10/19 11:06:24;;;;;;;10.90;5.43;;;;;;;-141.59;100.00;61776.25;5030291;28;20194;-82
2022/10/19 11:09:00;;;;;;;10.85;5.22;;;;;;;-141.59;100.00;61776.25;5022437;28;20218;-81
2022/10/19 11:11:34;;;;;;;10.25;5.47;;;;;;;-141.59;100.00;61776.25;5037870;28;20250;-80
2022/10/19 11:14:19;;;;;;;16.48;6.05;;;;;;;-141.59;100.00;61776.25;5018830;28;20203;-81
2022/10/19 11:16:50;;;;;;;8.95;5.35;;;;;;;-141.59;100.00;61776.25;5031435;28;20207;-80
2022/10/19 11:19:22;;;;;;;13.30;5.43;;;;;;;-141.59;100.00;61776.25;5018402;28;20298;-81
2022/10/19 11:21:57;;;;;;;7.88;5.47;;;;;;;-141.59;100.00;61776.25;5039807;28;20225;-81
2022/10/19 11:24:36;;;;;;;9.68;5.65;;;;;;;-141.59;100.00;61776.25;5030208;28;20309;-80
2022/10/19 11:27:16;;;;;;;9.30;5.50;;;;;;;-141.59;100.00;61776.25;5025769;28;20206;-81
2022/10/19 11:29:55;;;;;;;8.15;5.20;;;;;;;-141.59;100.00;61776.25;5028017;28;20298;-81
2022/10/19 11:32:32;;;;;;;10.73;5.88;;;;;;;-141.59;100.00;61776.25;5015547;28;20294;-80